Latest Weather Observations for St Lawrence

IDQ60801

Issued at 4:02 pm EST Sunday 2 August 2015 (issued every 30 minutes, with the page automatically refreshed every 10 minutes)

About weather observations | Map of weather stations | Latest weather observations for QLD | Other Formats
Station Details ID: 033210 Name: ST LAWRENCE Lat: -22.35 Lon: 149.52 Height: 9.19 m
Data from the previous 72 hours. | See also: Recent months at St Lawrence
Date/Time
EST
Temp
°C
App
Temp
°C
Dew
Point
Rel
Hum
%
Delta-T
°C
Wind Press
QNH
hPa
Press
MSL
hPa
Rain
since 9 am
mm
Dir
 
Spd
km/h
Gust
km/h
Spd
kts
Gust
kts
02/04:00pm 24.1 22.2 14.2 54 5.8 NE 17 20 9 11 1019.3 1019.3 0.0
02/03:30pm 24.8 23.5 13.7 50 6.5 NE 13 19 7 10 1019.4 1019.4 0.0
02/03:00pm 24.0 22.4 13.8 53 6.0 NE 15 20 8 11 1019.6 1019.6 0.0
02/02:30pm 24.9 23.8 14.4 52 6.2 NNE 13 19 7 10 1019.7 1019.7 0.0
02/02:00pm 24.5 23.3 14.0 52 6.2 NNE 13 19 7 10 1020.2 1020.2 0.0
02/01:30pm 24.8 23.2 14.0 51 6.4 NE 15 19 8 10 1020.6 1020.6 0.0
02/01:00pm 24.6 23.5 14.4 53 6.0 NE 13 19 7 10 1021.1 1021.1 0.0
02/12:30pm 24.3 22.6 13.5 51 6.3 NNE 15 22 8 12 1021.7 1021.7 0.0
02/12:00pm 24.0 23.0 14.7 56 5.5 NE 13 24 7 13 1022.2 1022.2 0.0
02/11:30am 23.6 21.6 14.0 55 5.6 NE 17 24 9 13 1022.6 1022.6 0.0
02/11:00am 23.4 22.4 14.7 58 5.1 NE 13 19 7 10 1022.8 1022.8 0.0
02/10:30am 22.9 22.7 14.7 60 4.9 NNE 9 17 5 9 1023.0 1023.0 0.0
02/10:00am 21.7 21.8 14.4 63 4.3 N 7 13 4 7 1023.2 1023.2 0.0
02/09:30am 20.4 20.6 14.1 67 3.6 SSE 6 7 3 4 1023.4 1023.4 0.0
02/09:00am 18.2 18.2 13.5 74 2.7 SSW 6 7 3 4 1023.1 1023.1 0.0
02/08:30am 15.5 15.7 13.0 85 1.4 WSW 4 6 2 3 1022.7 1022.7 0.0
02/08:00am 13.0 12.4 11.6 91 0.7 SW 6 7 3 4 1022.7 1022.7 0.0
02/07:30am 11.1 11.2 10.2 94 0.5 CALM 0 2 0 1 1022.6 1022.6 0.0
02/07:00am 9.6 8.9 8.7 94 0.4 SW 2 6 1 3 1022.2 1022.2 0.0
02/06:30am 8.2 7.4 6.5 89 0.8 CALM 0 0 0 0 1022.0 1022.0 0.0
02/06:00am 10.1 9.2 9.3 95 0.4 SW 4 6 2 3 1021.7 1021.7 0.0
02/05:30am 10.2 10.1 9.4 95 0.4 CALM 0 0 0 0 1021.5 1021.5 0.0
02/05:00am 9.0 8.5 7.9 93 0.5 CALM 0 0 0 0 1021.2 1021.2 0.0
02/04:30am 8.6 7.9 7.1 90 0.7 CALM 0 0 0 0 1021.1 1021.1 0.0
02/04:00am 10.4 9.1 9.3 93 0.5 S 6 7 3 4 1021.2 1021.2 0.0
02/03:30am 9.9 9.6 8.7 92 0.6 CALM 0 0 0 0 1021.2 1021.2 0.0
02/03:00am 10.3 10.1 9.1 92 0.6 CALM 0 0 0 0 1021.4 1021.4 0.0
02/02:30am 11.1 10.4 10.0 93 0.6 SW 4 7 2 4 1021.6 1021.6 0.0
02/02:00am 11.1 10.4 9.9 92 0.6 SW 4 7 2 4 1021.6 1021.6 0.0
02/01:30am 10.9 9.7 9.5 91 0.7 SW 6 6 3 3 1021.8 1021.8 0.0
02/01:00am 11.2 11.1 9.6 90 0.8 CALM 0 0 0 0 1022.1 1022.1 0.0
02/12:30am 11.9 11.0 10.5 91 0.7 SW 6 7 3 4 1022.4 1022.4 0.0
02/12:00am 11.6 10.6 10.3 92 0.7 WSW 6 9 3 5 1022.4 1022.4 0.0
 
Date/Time
EST
Temp
°C
App
Temp
°C
Dew
Point
Rel
Hum
%
Delta-T
°C
Wind Press
QNH
hPa
Press
MSL
hPa
Rain
since 9 am
mm
Dir
 
Spd
km/h
Gust
km/h
Spd
kts
Gust
kts
01/11:30pm 11.7 11.6 9.4 86 1.2 CALM 0 0 0 0 1022.3 1022.3 0.0
01/11:00pm 13.0 12.3 11.4 90 0.8 SSW 6 7 3 4 1022.3 1022.3 0.0
01/10:30pm 13.1 13.5 11.3 89 1.0 CALM 0 7 0 4 1022.2 1022.2 0.0
01/10:00pm 12.6 12.8 10.5 87 1.1 CALM 0 0 0 0 1022.1 1022.1 0.0
01/09:30pm 13.6 13.8 10.6 82 1.6 CALM 0 0 0 0 1022.0 1022.0 0.0
01/09:00pm 14.9 15.6 12.2 84 1.5 CALM 0 0 0 0 1022.0 1022.0 0.0
01/08:30pm 14.6 15.0 11.2 80 1.8 CALM 0 0 0 0 1021.9 1021.9 0.0
01/08:00pm 15.3 15.7 11.3 77 2.1 CALM 0 0 0 0 1021.4 1021.4 0.0
01/07:30pm 16.2 16.8 11.8 75 2.4 CALM 0 0 0 0 1021.0 1021.0 0.0
01/07:00pm 17.6 18.3 12.1 70 3.0 CALM 0 0 0 0 1020.6 1020.6 0.0
01/06:30pm 19.1 18.6 12.8 67 3.5 NE 7 9 4 5 1020.4 1020.4 0.0
01/06:00pm 19.8 19.0 12.8 64 3.9 NNE 9 11 5 6 1020.2 1020.2 0.0
01/05:30pm 21.2 19.5 12.3 57 5.0 NNE 13 17 7 9 1020.0 1020.0 0.0
01/05:00pm 22.5 20.2 11.9 51 5.9 NNE 15 20 8 11 1020.0 1020.0 0.0
01/04:30pm 23.3 21.4 11.7 48 6.5 NNE 13 20 7 11 1019.8 1019.8 0.0
01/04:00pm 23.6 21.4 12.0 48 6.6 NNE 15 20 8 11 1019.9 1019.9 0.0
01/03:30pm 23.8 21.2 10.8 44 7.2 NNE 15 20 8 11 1020.0 1020.0 0.0
01/03:00pm 24.0 21.6 11.3 45 7.1 NNE 15 19 8 10 1020.0 1020.0 0.0
01/02:30pm 24.2 21.2 10.8 43 7.5 NNE 17 20 9 11 1020.2 1020.2 0.0
01/02:00pm 24.3 21.5 11.3 44 7.3 NNE 17 24 9 13 1020.5 1020.5 0.0
01/01:30pm 24.3 21.4 10.9 43 7.5 NNE 17 22 9 12 1021.0 1021.0 0.0
01/01:00pm 23.5 20.7 11.5 47 6.7 NNE 17 24 9 13 1021.4 1021.4 0.0
01/12:30pm 23.5 21.1 12.5 50 6.3 NNE 17 24 9 13 1022.1 1022.1 0.0
01/12:00pm 23.2 20.3 12.2 50 6.2 NNE 19 22 10 12 1022.5 1022.5 0.0
01/11:30am 23.1 20.6 12.4 51 6.1 NNE 17 22 9 12 1022.8 1022.8 0.0
01/11:00am 23.1 21.5 12.7 52 5.9 NE 13 20 7 11 1023.2 1023.2 0.0
01/10:30am 22.8 22.1 13.3 55 5.5 NNE 9 22 5 12 1023.4 1023.4 0.0
01/10:00am 21.7 22.2 14.1 62 4.4 ESE 4 11 2 6 1023.6 1023.6 0.0
01/09:30am 20.0 20.7 14.6 71 3.1 SW 4 9 2 5 1023.5 1023.5 0.0
01/09:00am 17.6 18.1 14.9 84 1.6 SSW 6 7 3 4 1023.3 1023.3 0.0
01/08:30am 15.6 15.7 14.5 93 0.6 SSW 7 9 4 5 1023.2 1023.2 0.0
01/08:00am 12.4 12.9 11.5 94 0.5 CALM 0 0 0 0 1023.0 1023.0 0.0
01/07:30am 10.7 10.8 10.1 96 0.3 CALM 0 0 0 0 1022.7 1022.7 0.0
01/07:00am 9.6 9.3 8.8 95 0.4 CALM 0 0 0 0 1022.5 1022.5 0.0
01/06:30am 9.9 9.8 9.3 96 0.3 CALM 0 0 0 0 1022.2 1022.2 0.0
01/06:00am 10.3 9.5 9.7 96 0.3 SW 4 6 2 3 1021.9 1021.9 0.0
01/05:30am 9.4 7.9 8.6 95 0.4 SW 6 6 3 3 1021.6 1021.6 0.0
01/05:00am 9.8 8.4 9.0 95 0.4 SW 6 7 3 4 1021.5 1021.5 0.0
01/04:30am 10.7 9.6 9.9 95 0.4 S 6 7 3 4 1021.2 1021.2 0.0
01/04:00am 11.7 10.7 10.9 95 0.4 S 7 11 4 6 1021.2 1021.2 0.0
01/03:30am 11.9 10.6 11.1 95 0.4 S 9 11 5 6 1021.2 1021.2 0.0
01/03:00am 11.8 10.7 10.7 93 0.6 S 7 9 4 5 1021.2 1021.2 0.0
01/02:30am 12.4 11.5 11.3 93 0.6 S 7 9 4 5 1021.2 1021.2 0.0
01/02:00am 12.2 11.4 10.9 92 0.7 SW 6 7 3 4 1021.4 1021.4 0.0
01/01:30am 12.3 12.6 11.0 92 0.7 CALM 0 0 0 0 1021.5 1021.5 0.0
01/01:00am 12.5 12.1 11.2 92 0.7 WSW 4 7 2 4 1021.6 1021.6 0.0
01/12:30am 12.0 12.2 10.4 90 0.8 CALM 0 0 0 0 1021.6 1021.6 0.0
01/12:00am 12.7 13.0 10.9 89 0.9 CALM 0 0 0 0 1021.7 1021.7 0.0
 
Date/Time
EST
Temp
°C
App
Temp
°C
Dew
Point
Rel
Hum
%
Delta-T
°C
Wind Press
QNH
hPa
Press
MSL
hPa
Rain
since 9 am
mm
Dir
 
Spd
km/h
Gust
km/h
Spd
kts
Gust
kts
31/11:30pm 13.3 13.8 11.5 89 1.0 CALM 0 0 0 0 1021.9 1021.9 0.0
31/11:00pm 13.7 13.5 11.7 88 1.1 WSW 4 6 2 3 1022.0 1022.0 0.0
31/10:30pm 14.4 15.2 12.4 88 1.1 CALM 0 0 0 0 1021.9 1021.9 0.0
31/10:00pm 14.3 13.9 12.3 88 1.1 WSW 6 7 3 4 1021.7 1021.7 0.0
31/09:30pm 14.3 14.9 12.0 86 1.2 CALM 0 0 0 0 1021.5 1021.5 0.0
31/09:00pm 15.1 15.9 12.4 84 1.5 CALM 0 0 0 0 1021.1 1021.1 0.0
31/08:30pm 15.7 16.6 13.0 84 1.5 CALM 0 0 0 0 1021.0 1021.0 0.0
31/08:00pm 15.7 16.4 12.1 79 2.0 CALM 0 4 0 2 1021.0 1021.0 0.0
31/07:30pm 17.2 18.2 13.3 78 2.2 CALM 0 0 0 0 1020.8 1020.8 0.0
31/07:00pm 17.9 19.0 13.4 75 2.5 CALM 0 6 0 3 1020.4 1020.4 0.0
31/06:30pm 18.8 18.7 13.9 73 2.8 NNE 7 9 4 5 1020.3 1020.3 0.0
31/06:00pm 19.7 18.9 14.1 70 3.2 NE 11 15 6 8 1020.2 1020.2 0.0
31/05:30pm 20.9 19.7 14.1 65 3.9 NE 13 17 7 9 1019.9 1019.9 0.0
31/05:00pm 22.3 21.0 13.6 58 5.0 NE 13 17 7 9 1019.6 1019.6 0.0
31/04:30pm 23.1 21.6 13.0 53 5.8 NE 13 19 7 10 1019.5 1019.5 0.0
31/04:00pm 23.3 21.1 13.2 53 5.8 NNE 17 20 9 11 1019.4 1019.4 0.0
31/03:30pm 24.5 22.1 12.5 47 6.9 NNE 17 24 9 13 1019.5 1019.5 0.0
31/03:00pm 24.4 21.4 12.4 47 6.9 NNE 20 24 11 13 1019.7 1019.7 0.0
31/02:30pm 24.7 22.7 12.6 47 7.0 NE 15 24 8 13 1020.1 1020.1 0.0
31/02:00pm 23.6 22.6 12.3 49 6.4 ENE 9 17 5 9 1020.5 1020.5 0.0
31/01:30pm 24.6 22.8 13.2 49 6.6 NE 15 24 8 13 1020.7 1020.7 0.0
31/01:00pm 22.8 22.6 13.6 56 5.3 NE 7 24 4 13 1021.4 1021.4 0.0
31/12:30pm 23.9 23.2 14.3 55 5.7 NNE 11 19 6 10 1021.9 1021.9 0.0
31/12:00pm 23.5 22.5 12.2 49 6.4 ESE 9 19 5 10 1022.7 1022.7 0.0
31/11:30am 23.5 21.8 11.2 46 6.9 ESE 11 19 6 10 1023.2 1023.2 0.0
31/11:00am 22.9 22.2 13.1 54 5.6 ESE 9 17 5 9 1023.5 1023.5 0.0
31/10:30am 22.2 21.3 13.8 59 4.9 E 11 15 6 8 1024.0 1024.0 0.0
31/10:00am 21.3 21.3 14.2 64 4.1 ENE 7 15 4 8 1024.2 1024.2 0.0
31/09:30am 20.2 20.0 14.6 70 3.3 S 9 17 5 9 1024.3 1024.3 0.0
31/09:00am 18.6 17.9 15.3 81 1.9 S 13 19 7 10 1024.1 1024.1 0.0
31/08:30am 16.6 16.7 14.4 87 1.3 SSW 7 13 4 7 1023.7 1023.7 0.0
31/08:00am 13.8 14.6 12.5 92 0.7 CALM 0 0 0 0 1023.4 1023.4 0.0
31/07:30am 12.1 11.4 11.3 95 0.4 SSW 6 7 3 4 1023.2 1023.2 0.0
31/07:00am 11.2 10.0 10.4 95 0.4 WSW 7 9 4 5 1023.1 1023.1 0.0
31/06:30am 11.1 10.1 10.3 95 0.4 SW 6 7 3 4 1022.8 1022.8 0.0
31/06:00am 11.0 10.0 10.2 95 0.4 SW 6 6 3 3 1022.5 1022.5 0.0
31/05:30am 10.8 9.7 10.0 95 0.4 SW 6 7 3 4 1022.1 1022.1 0.0
31/05:00am 9.8 8.8 8.9 94 0.4 SW 4 7 2 4 1021.7 1021.7 0.0
31/04:30am 9.3 8.4 7.7 90 0.8 S 2 6 1 3 1021.8 1021.8 0.0
31/04:00am 11.3 10.4 10.5 95 0.4 SSW 6 7 3 4 1022.1 1022.1 0.0
31/03:30am 11.0 9.7 9.9 93 0.6 SW 7 7 4 4 1022.2 1022.2 0.0
31/03:00am 11.5 11.6 10.2 92 0.7 CALM 0 0 0 0 1022.1 1022.1 0.0
31/02:30am 11.6 11.7 10.2 91 0.7 CALM 0 6 0 3 1022.2 1022.2 0.0
31/02:00am 12.7 11.5 11.6 93 0.6 S 9 11 5 6 1022.4 1022.4 0.0
31/01:30am 13.4 12.5 12.5 94 0.5 S 9 11 5 6 1022.8 1022.8 0.0
31/01:00am 11.6 11.2 9.9 89 0.9 SW 2 7 1 4 1022.9 1022.9 0.0
31/12:30am 13.1 13.2 11.5 90 0.8 SSW 2 6 1 3 1023.2 1023.2 0.0
31/12:00am 13.5 13.0 12.1 91 0.7 SSW 6 7 3 4 1023.6 1023.6 0.0
 
Date/Time
EST
Temp
°C
App
Temp
°C
Dew
Point
Rel
Hum
%
Delta-T
°C
Wind Press
QNH
hPa
Press
MSL
hPa
Rain
since 9 am
mm
Dir
 
Spd
km/h
Gust
km/h
Spd
kts
Gust
kts
30/11:30pm 14.0 13.5 12.0 88 1.1 WSW 6 7 3 4 1023.7 1023.7 0.0
30/11:00pm 14.9 14.2 13.3 90 0.9 SW 9 13 5 7 1024.0 1024.0 0.0
30/10:30pm 14.0 14.5 11.7 86 1.2 CALM 0 0 0 0 1023.9 1023.9 0.0
30/10:00pm 14.9 14.7 11.9 82 1.6 SE 4 6 2 3 1023.9 1023.9 0.0
30/09:30pm 16.1 16.8 12.3 78 2.1 CALM 0 0 0 0 1024.0 1024.0 0.0
30/09:00pm 17.1 16.8 12.8 76 2.4 ESE 6 7 3 4 1023.9 1023.9 0.0
30/08:30pm 18.2 19.6 14.5 79 2.1 CALM 0 0 0 0 1023.9 1023.9 0.0
30/08:00pm 17.8 18.7 13.9 78 2.2 NE 2 6 1 3 1023.6 1023.6 0.0
30/07:30pm 18.1 18.0 13.4 74 2.7 NE 6 7 3 4 1023.2 1023.2 0.0
30/07:00pm 19.2 20.4 13.8 71 3.1 CALM 0 0 0 0 1022.9 1022.9 0.0
30/06:30pm 19.5 20.8 14.1 71 3.1 CALM 0 0 0 0 1022.6 1022.6 0.0
30/06:00pm 20.0 20.3 14.4 70 3.2 N 6 7 3 4 1022.3 1022.3 0.0
30/05:30pm 20.5 20.3 13.5 64 4.0 NE 7 9 4 5 1022.0 1022.0 0.0
30/05:00pm 21.1 20.1 13.5 62 4.4 ENE 11 17 6 9 1021.9 1021.9 0.0
30/04:30pm 22.3 21.6 13.1 56 5.3 ENE 9 17 5 9 1021.7 1021.7 0.0

Other Formats:

Comma delimited format used in spreadsheet applications
http://www.bom.gov.au/fwo/IDQ60801/IDQ60801.95369.axf

JavaScript Object Notation format (JSON) in row-major order
http://www.bom.gov.au/fwo/IDQ60801/IDQ60801.95369.json